Time;durP1;ratioP1;P1;durP2;ratioP2;P2;SDS_P1;SDS_P2;PMS_P1;PMS_P2;Temp;Humidity;BMP_temperature;BMP_pressure;BME280_temperature;BME280_humidity;BME280_pressure;Samples;Min_cycle;Max_cycle;Signal;HPM_P1;HPM_P2
2021/09/04 00:00:13;;;;;;;22.90;11.70;;;;;;;12.52;75.66;100459.84;112327;1202;22471;-59
2021/09/04 00:03:04;;;;;;;24.90;11.20;;;;;;;12.49;75.69;100458.27;112427;1201;22437;-61
2021/09/04 00:05:33;;;;;;;24.80;12.70;;;;;;;12.44;75.47;100458.80;112430;1202;22398;-61
2021/09/04 00:08:01;;;;;;;21.10;10.50;;;;;;;12.38;75.47;100457.35;112340;1202;22503;-59
2021/09/04 00:10:30;;;;;;;23.90;12.30;;;;;;;12.33;75.54;100454.98;112393;1201;25232;-61
2021/09/04 00:12:58;;;;;;;22.40;11.20;;;;;;;12.30;75.56;100457.11;112410;1201;24110;-60
2021/09/04 00:15:27;;;;;;;28.00;10.90;;;;;;;12.26;75.68;100458.29;112403;1201;24459;-60
2021/09/04 00:17:55;;;;;;;22.10;10.80;;;;;;;12.24;75.65;100458.45;112714;1201;24156;-61
2021/09/04 00:20:24;;;;;;;23.50;10.80;;;;;;;12.20;75.62;100455.76;112828;1202;25387;-59
2021/09/04 00:22:52;;;;;;;24.60;11.40;;;;;;;12.15;75.73;100454.31;112365;1202;22501;-59
2021/09/04 00:25:21;;;;;;;23.70;11.70;;;;;;;12.11;75.58;100447.56;112336;1200;22452;-60
2021/09/04 00:27:55;;;;;;;19.50;10.00;;;;;;;12.07;75.58;100444.70;112417;1202;22436;-60
2021/09/04 00:30:23;;;;;;;28.10;11.00;;;;;;;12.04;75.55;100445.02;112447;1201;22470;-60
2021/09/04 00:32:52;;;;;;;24.30;10.90;;;;;;;11.99;75.54;100438.02;112479;1201;25152;-59
2021/09/04 00:35:21;;;;;;;24.50;12.00;;;;;;;11.96;75.63;100438.61;112451;1201;25233;-60
2021/09/04 00:37:49;;;;;;;26.10;13.10;;;;;;;11.92;76.36;100434.08;112427;1202;22390;-59
2021/09/04 00:40:17;;;;;;;25.10;12.90;;;;;;;11.93;76.41;100435.50;112421;1206;24191;-60
2021/09/04 00:42:46;;;;;;;20.00;9.80;;;;;;;11.90;76.15;100435.33;112379;1206;22473;-60
2021/09/04 00:45:15;;;;;;;23.10;10.40;;;;;;;11.87;76.12;100432.41;112613;1200;26515;-59
2021/09/04 00:47:57;;;;;;;20.30;9.40;;;;;;;11.82;76.04;100431.72;112550;1201;25272;-59
2021/09/04 00:50:29;;;;;;;20.10;10.20;;;;;;;11.79;76.06;100435.02;113289;1201;23269;-61
2021/09/04 00:52:59;;;;;;;23.80;10.70;;;;;;;11.75;76.16;100437.13;112824;1205;25093;-61
2021/09/04 00:55:28;;;;;;;19.60;10.70;;;;;;;11.71;76.12;100439.56;112506;1203;22443;-59
2021/09/04 00:57:56;;;;;;;20.40;10.00;;;;;;;11.68;76.21;100439.30;112291;1202;24048;-61
2021/09/04 01:00:25;;;;;;;21.10;10.90;;;;;;;11.63;76.13;100435.73;112377;1201;22450;-60
2021/09/04 01:02:54;;;;;;;19.50;9.70;;;;;;;11.60;76.16;100438.58;112524;1201;26347;-59
2021/09/04 01:05:22;;;;;;;19.10;9.70;;;;;;;11.57;76.07;100442.73;112383;1202;22464;-59
2021/09/04 01:07:51;;;;;;;21.50;10.90;;;;;;;11.52;76.00;100447.70;112339;1201;22430;-59
2021/09/04 01:10:20;;;;;;;;;;;;;;;11.49;76.09;100447.41;112476;1202;22426;-60
2021/09/04 01:12:49;;;;;;;20.80;8.70;;;;;;;11.45;76.14;100449.67;112409;1206;22465;-59
2021/09/04 01:15:20;;;;;;;20.20;9.30;;;;;;;11.42;76.28;100450.30;112188;1201;24066;-60
2021/09/04 01:17:48;;;;;;;21.50;10.40;;;;;;;11.38;76.25;100446.81;112219;1202;25050;-60
2021/09/04 01:20:16;;;;;;;21.10;10.40;;;;;;;11.35;76.34;100448.52;111738;1201;24232;-59
2021/09/04 01:22:46;;;;;;;20.90;9.20;;;;;;;11.32;76.24;100448.77;111785;1204;22551;-59
2021/09/04 01:25:24;;;;;;;20.80;9.10;;;;;;;11.28;76.20;100455.41;111713;1206;26514;-60
2021/09/04 01:27:53;;;;;;;22.10;9.30;;;;;;;11.24;76.29;100454.68;111760;1204;22448;-58
2021/09/04 01:30:22;;;;;;;20.00;9.20;;;;;;;11.21;76.43;100455.83;111750;1202;22453;-60
2021/09/04 01:32:50;;;;;;;20.10;9.50;;;;;;;11.19;76.41;100453.86;111737;1201;25253;-59
2021/09/04 01:35:22;;;;;;;20.70;10.10;;;;;;;11.17;76.49;100454.48;111772;1206;24227;-61
2021/09/04 01:37:51;;;;;;;25.00;11.10;;;;;;;11.15;76.53;100452.92;111756;1203;22451;-58
2021/09/04 01:40:20;;;;;;;21.90;10.50;;;;;;;11.13;76.81;100447.54;111743;1204;22464;-61
2021/09/04 01:42:49;;;;;;;22.00;10.30;;;;;;;11.09;76.83;100444.88;112105;1200;24093;-58
2021/09/04 01:45:18;;;;;;;21.70;9.50;;;;;;;11.04;76.81;100443.64;111826;1201;24085;-57
2021/09/04 01:47:47;;;;;;;19.70;9.00;;;;;;;11.00;76.73;100441.36;112039;1201;25148;-60
2021/09/04 01:50:16;;;;;;;19.80;8.90;;;;;;;10.95;76.65;100438.02;111830;1201;22441;-60
2021/09/04 01:52:46;;;;;;;20.70;9.90;;;;;;;10.92;76.75;100437.95;111632;1202;25094;-59
2021/09/04 01:55:17;;;;;;;21.70;9.10;;;;;;;10.88;76.72;100433.42;111716;1202;24075;-59
2021/09/04 01:57:46;;;;;;;22.30;9.70;;;;;;;10.85;76.95;100430.77;111600;1202;24112;-59
2021/09/04 02:00:17;;;;;;;23.10;10.50;;;;;;;10.83;76.80;100427.41;111612;1203;22940;-59
2021/09/04 02:02:45;;;;;;;27.30;10.90;;;;;;;10.78;76.92;100430.72;111794;1201;22449;-59
2021/09/04 02:05:14;;;;;;;28.30;11.80;;;;;;;10.75;76.75;100428.98;111580;1203;22443;-59
2021/09/04 02:07:42;;;;;;;26.50;12.10;;;;;;;10.72;76.78;100428.04;111690;1202;22462;-58
2021/09/04 02:10:12;;;;;;;27.90;12.40;;;;;;;10.69;76.92;100432.41;111649;1202;22488;-60
2021/09/04 02:12:40;;;;;;;29.00;11.80;;;;;;;10.68;76.97;100431.28;111712;1206;22428;-58
2021/09/04 02:15:10;;;;;;;30.00;11.80;;;;;;;10.66;76.86;100429.30;111634;1202;24961;-58
2021/09/04 02:17:38;;;;;;;27.80;10.90;;;;;;;10.65;76.83;100428.06;111752;1201;24088;-59
2021/09/04 02:20:08;;;;;;;24.90;10.80;;;;;;;10.62;76.85;100426.11;111751;1201;24234;-60
2021/09/04 02:22:37;;;;;;;23.90;11.00;;;;;;;10.58;76.89;100424.92;111696;1202;24217;-60
2021/09/04 02:25:08;;;;;;;28.90;11.40;;;;;;;10.56;77.04;100422.68;111676;1202;25217;-59
2021/09/04 02:27:37;;;;;;;23.80;10.90;;;;;;;10.53;77.08;100429.21;111673;1201;25415;-59
2021/09/04 02:30:09;;;;;;;22.30;10.20;;;;;;;10.51;77.13;100431.86;111689;1206;22452;-59
2021/09/04 02:32:37;;;;;;;23.00;9.90;;;;;;;10.49;77.24;100427.17;111696;1201;22432;-61
2021/09/04 02:35:08;;;;;;;21.50;9.60;;;;;;;10.46;77.29;100426.02;111661;1205;23207;-59
2021/09/04 02:37:36;;;;;;;20.30;9.60;;;;;;;10.43;77.16;100430.73;111772;1202;22566;-59
2021/09/04 02:40:07;;;;;;;22.20;8.80;;;;;;;10.41;77.15;100431.08;111614;1202;22459;-60
2021/09/04 02:42:35;;;;;;;19.00;8.10;;;;;;;10.39;77.14;100433.83;112007;1202;24182;-59
2021/09/04 02:45:04;;;;;;;19.70;8.10;;;;;;;10.38;77.18;100436.19;111825;1202;24093;-59
2021/09/04 02:47:34;;;;;;;17.60;7.10;;;;;;;10.35;77.11;100439.11;111785;1202;25408;-58
2021/09/04 02:50:02;;;;;;;15.60;6.70;;;;;;;10.33;77.31;100440.30;111737;1202;25158;-60
2021/09/04 02:52:30;;;;;;;12.50;5.40;;;;;;;10.31;77.38;100439.70;111667;1202;25206;-58
2021/09/04 02:54:58;;;;;;;14.60;5.90;;;;;;;10.28;77.23;100439.77;111643;1202;22496;-59
2021/09/04 02:57:27;;;;;;;13.90;5.00;;;;;;;10.26;77.37;100437.08;111720;1201;22441;-57
2021/09/04 02:59:55;;;;;;;13.00;4.80;;;;;;;10.23;77.61;100435.08;111717;1202;24309;-60
2021/09/04 03:02:24;;;;;;;9.30;4.40;;;;;;;10.20;77.45;100435.46;111663;1202;22450;-59
2021/09/04 03:04:55;;;;;;;17.40;5.60;;;;;;;10.18;77.59;100435.27;112003;1203;25213;-59
2021/09/04 03:07:28;;;;;;;12.70;4.40;;;;;;;10.15;77.60;100434.67;111686;1201;24213;-60
2021/09/04 03:09:56;;;;;;;14.60;5.40;;;;;;;10.12;77.64;100437.42;111590;1201;23111;-59
2021/09/04 03:12:24;;;;;;;9.70;3.50;;;;;;;10.10;77.61;100434.49;111726;1202;22537;-58
2021/09/04 03:14:52;;;;;;;11.10;4.10;;;;;;;10.06;77.67;100436.48;111601;1201;22440;-59
2021/09/04 03:17:20;;;;;;;11.30;3.80;;;;;;;10.04;77.65;100433.23;111658;1202;24151;-59
2021/09/04 03:19:49;;;;;;;10.60;3.90;;;;;;;10.02;77.75;100431.91;111582;1201;22469;-59
2021/09/04 03:22:17;;;;;;;8.70;3.50;;;;;;;10.00;77.61;100426.93;111659;1202;22444;-59
2021/09/04 03:24:45;;;;;;;12.10;4.20;;;;;;;9.96;77.64;100421.92;111665;1202;22452;-59
2021/09/04 03:27:13;;;;;;;11.20;4.20;;;;;;;9.93;77.63;100420.52;111698;1201;24080;-59
2021/09/04 03:29:42;;;;;;;8.20;3.50;;;;;;;9.91;77.64;100421.34;111820;1201;24102;-60
2021/09/04 03:32:13;;;;;;;9.60;4.00;;;;;;;9.88;77.78;100421.27;111717;1202;22540;-60
2021/09/04 03:34:41;;;;;;;9.70;3.70;;;;;;;9.85;77.78;100425.71;111654;1201;25111;-59
2021/09/04 03:37:09;;;;;;;11.60;4.30;;;;;;;9.83;77.82;100429.47;111692;1203;24703;-61
2021/09/04 03:39:37;;;;;;;10.00;4.00;;;;;;;9.80;77.85;100429.94;111709;1203;25287;-61
2021/09/04 03:42:06;;;;;;;9.70;4.30;;;;;;;9.79;77.98;100431.65;111687;1201;24142;-60
2021/09/04 03:44:34;;;;;;;12.70;4.70;;;;;;;9.76;77.91;100430.88;111747;1201;23773;-59
2021/09/04 03:47:03;;;;;;;12.00;4.50;;;;;;;9.74;77.96;100431.46;111673;1201;24096;-59
2021/09/04 03:49:32;;;;;;;14.50;5.20;;;;;;;9.70;77.95;100431.08;111689;1206;24067;-59
2021/09/04 03:52:00;;;;;;;11.10;4.70;;;;;;;9.68;77.99;100431.34;111754;1201;22440;-59
2021/09/04 03:54:30;;;;;;;13.20;4.80;;;;;;;9.67;78.03;100435.70;111645;1201;24314;-60
2021/09/04 03:56:59;;;;;;;13.10;5.40;;;;;;;9.65;78.12;100438.66;111772;1196;24366;-59
2021/09/04 03:59:27;;;;;;;14.20;5.40;;;;;;;9.63;78.13;100439.71;112029;1202;25324;-60
2021/09/04 04:01:55;;;;;;;16.70;6.00;;;;;;;9.62;78.14;100437.95;112030;1203;25051;-59
2021/09/04 04:04:23;;;;;;;21.70;8.30;;;;;;;9.59;78.30;100444.43;111894;1201;22446;-62
2021/09/04 04:06:58;;;;;;;22.50;8.90;;;;;;;9.58;78.71;100448.05;111640;1202;24211;-59
2021/09/04 04:09:29;;;;;;;21.80;8.90;;;;;;;9.57;78.51;100449.70;111632;1201;22622;-59
2021/09/04 04:11:58;;;;;;;22.60;8.20;;;;;;;9.53;78.24;100448.52;111726;1201;24091;-59
2021/09/04 04:14:26;;;;;;;24.70;9.40;;;;;;;9.50;78.41;100451.62;111733;1202;23025;-61
2021/09/04 04:16:54;;;;;;;22.40;7.80;;;;;;;9.47;78.25;100450.95;111637;1203;24816;-59
2021/09/04 04:19:25;;;;;;;24.40;9.50;;;;;;;9.43;78.22;100454.54;112002;1201;22739;-59
2021/09/04 04:21:56;;;;;;;21.10;9.00;;;;;;;9.42;78.44;100455.35;111670;1201;22563;-57
2021/09/04 04:24:25;;;;;;;22.00;9.20;;;;;;;9.39;78.32;100458.23;111629;1202;24584;-60
2021/09/04 04:26:54;;;;;;;23.00;8.00;;;;;;;9.38;78.48;100460.92;111723;1202;25059;-59
2021/09/04 04:29:22;;;;;;;23.90;8.60;;;;;;;9.37;78.64;100460.95;111661;1201;22453;-60
2021/09/04 04:31:51;;;;;;;22.60;7.30;;;;;;;9.36;78.62;100463.36;111642;1201;25300;-61
2021/09/04 04:34:20;;;;;;;23.00;8.40;;;;;;;9.36;78.70;100464.52;111773;1202;24211;-59
2021/09/04 04:36:48;;;;;;;20.50;8.70;;;;;;;9.37;78.75;100466.21;111763;1202;24198;-58
2021/09/04 04:39:16;;;;;;;22.40;8.00;;;;;;;9.35;78.82;100465.31;111676;1203;22391;-60
2021/09/04 04:41:45;;;;;;;19.80;8.20;;;;;;;9.35;78.93;100466.47;111735;1201;25328;-58
2021/09/04 04:44:13;;;;;;;23.20;8.40;;;;;;;9.35;79.15;100470.52;111698;1202;22456;-59
2021/09/04 04:46:41;;;;;;;17.20;6.60;;;;;;;9.36;79.14;100473.34;111672;1202;22453;-58
2021/09/04 04:49:10;;;;;;;21.40;7.30;;;;;;;9.37;79.19;100474.27;111816;1202;22558;-61
2021/09/04 04:51:39;;;;;;;20.00;8.40;;;;;;;9.37;79.27;100478.07;111683;1202;23054;-60
2021/09/04 04:54:07;;;;;;;20.90;8.30;;;;;;;9.39;79.40;100481.80;111675;1201;22459;-60
2021/09/04 04:56:43;;;;;;;15.80;7.30;;;;;;;9.42;79.78;100482.16;111774;1202;22646;-60
2021/09/04 04:59:11;;;;;;;21.00;8.50;;;;;;;9.45;79.79;100485.45;111650;1202;22933;-59
2021/09/04 05:01:40;;;;;;;21.10;7.90;;;;;;;9.49;80.13;100480.02;111679;1202;22481;-60
2021/09/04 05:04:08;;;;;;;16.30;7.10;;;;;;;9.52;80.32;100477.79;111909;1203;25379;-59
2021/09/04 05:06:36;;;;;;;19.20;7.50;;;;;;;9.55;80.34;100481.48;111689;1201;22460;-59
2021/09/04 05:09:04;;;;;;;21.10;7.40;;;;;;;9.59;80.37;100485.27;111713;1201;22447;-60
2021/09/04 05:11:33;;;;;;;20.20;8.20;;;;;;;9.64;80.55;100484.13;111893;1202;22476;-59
2021/09/04 05:14:01;;;;;;;19.80;7.80;;;;;;;9.69;80.57;100483.48;111639;1201;22475;-59
2021/09/04 05:16:35;;;;;;;19.90;7.90;;;;;;;9.74;80.58;100481.34;111724;1201;22982;-59
2021/09/04 05:19:03;;;;;;;22.00;8.20;;;;;;;9.79;80.85;100478.39;111617;1201;25294;-59
2021/09/04 05:21:32;;;;;;;21.70;8.20;;;;;;;9.87;80.94;100479.09;112096;1202;23928;-60
2021/09/04 05:24:01;;;;;;;20.70;8.50;;;;;;;9.92;81.15;100480.84;112450;1206;22496;-60
2021/09/04 05:26:30;;;;;;;18.20;7.70;;;;;;;9.99;81.43;100478.69;112391;1202;22467;-59
2021/09/04 05:28:58;;;;;;;;;;;;;;;10.05;81.59;100483.71;112767;1202;22604;-59
2021/09/04 05:31:27;;;;;;;24.20;9.30;;;;;;;10.10;81.52;100481.73;112557;1203;22496;-59
2021/09/04 05:33:57;;;;;;;19.80;8.70;;;;;;;10.17;81.86;100485.58;112614;1206;22470;-60
2021/09/04 05:36:26;;;;;;;23.10;9.70;;;;;;;10.24;82.05;100486.81;112588;1202;25105;-59
2021/09/04 05:38:58;;;;;;;25.20;10.60;;;;;;;10.33;82.21;100484.23;112631;1202;22462;-61
2021/09/04 05:41:29;;;;;;;24.50;11.50;;;;;;;10.41;82.58;100485.48;112763;1201;22395;-61
2021/09/04 05:43:57;;;;;;;26.90;11.60;;;;;;;10.49;82.55;100486.98;112590;1202;24073;-59
2021/09/04 05:46:25;;;;;;;27.30;13.30;;;;;;;10.56;82.70;100485.52;112551;1201;25052;-59
2021/09/04 05:48:56;;;;;;;30.30;11.90;;;;;;;10.64;82.95;100486.03;112535;1202;25752;-59
2021/09/04 05:51:23;;;;;;;;;;;;;;;10.72;83.31;100485.02;112427;1202;22435;-61
2021/09/04 05:53:53;;;;;;;28.20;12.80;;;;;;;10.80;83.57;100484.27;112522;1202;22450;-61
2021/09/04 05:56:24;;;;;;;27.90;12.40;;;;;;;10.88;83.58;100482.77;112663;1202;25212;-58
2021/09/04 05:58:54;;;;;;;29.90;14.20;;;;;;;10.95;83.81;100478.21;112648;1202;22429;-59
2021/09/04 06:01:22;;;;;;;35.00;17.10;;;;;;;11.04;84.24;100477.28;112453;1202;22517;-59
2021/09/04 06:03:50;;;;;;;30.30;15.20;;;;;;;11.14;84.25;100478.40;112502;1203;22390;-59
2021/09/04 06:06:19;;;;;;;28.80;14.50;;;;;;;11.21;84.11;100476.76;112692;1201;22470;-61
2021/09/04 06:08:48;;;;;;;31.90;14.40;;;;;;;11.30;84.02;100479.64;112495;1205;22470;-59
2021/09/04 06:11:18;;;;;;;32.70;16.00;;;;;;;11.39;83.77;100478.57;112552;1201;25217;-59
2021/09/04 06:13:47;;;;;;;35.50;15.50;;;;;;;11.50;83.75;100476.98;112625;1201;23111;-59
2021/09/04 06:16:15;;;;;;;33.10;17.20;;;;;;;11.59;84.02;100481.77;112830;1200;22425;-59
2021/09/04 06:18:43;;;;;;;38.70;19.40;;;;;;;11.68;83.97;100481.64;112510;1201;22399;-59
2021/09/04 06:21:12;;;;;;;36.30;18.30;;;;;;;11.75;84.21;100481.89;112243;1204;22608;-60
2021/09/04 06:23:40;;;;;;;36.50;18.00;;;;;;;11.82;84.20;100481.31;112286;1202;22736;-62
2021/09/04 06:26:08;;;;;;;35.80;18.70;;;;;;;11.90;84.36;100480.89;112271;1201;22402;-60
2021/09/04 06:28:38;;;;;;;33.70;18.10;;;;;;;11.98;84.26;100473.80;112208;1202;22451;-59
2021/09/04 06:31:06;;;;;;;38.70;19.80;;;;;;;12.08;84.35;100473.20;112278;1202;22447;-59
2021/09/04 06:33:34;;;;;;;38.70;20.20;;;;;;;12.18;84.27;100476.27;112285;1201;22762;-59
2021/09/04 06:36:06;;;;;;;41.20;17.70;;;;;;;12.26;84.30;100482.29;112174;1202;22628;-58
2021/09/04 06:38:34;;;;;;;35.40;17.50;;;;;;;12.34;84.27;100484.77;111939;1202;22439;-59
2021/09/04 06:41:03;;;;;;;31.10;16.40;;;;;;;12.44;84.33;100489.81;111892;1201;22538;-59
2021/09/04 06:43:31;;;;;;;36.10;17.60;;;;;;;12.53;84.19;100492.50;111893;1201;24309;-60
2021/09/04 06:46:00;;;;;;;33.00;16.50;;;;;;;12.61;84.26;100487.31;111988;1201;22401;-59
2021/09/04 06:48:28;;;;;;;32.90;16.50;;;;;;;12.68;84.13;100488.74;115024;1206;22451;-62
2021/09/04 06:50:57;;;;;;;36.80;16.00;;;;;;;12.76;84.07;100488.52;112326;1203;25156;-60
2021/09/04 06:53:25;;;;;;;33.90;17.50;;;;;;;12.84;84.21;100493.49;112195;1202;22456;-61
2021/09/04 06:56:02;;;;;;;34.40;16.90;;;;;;;12.92;84.17;100496.73;112313;1201;26282;-62
2021/09/04 06:58:39;;;;;;;35.70;17.00;;;;;;;13.00;84.32;100495.66;112178;1202;22559;-61
2021/09/04 07:01:08;;;;;;;37.70;16.30;;;;;;;13.09;84.18;100495.66;112252;1201;22467;-61
2021/09/04 07:03:38;;;;;;;35.60;16.60;;;;;;;13.17;84.14;100498.40;112246;1200;23097;-60
2021/09/04 07:06:08;;;;;;;33.10;15.40;;;;;;;13.25;84.22;100494.73;112266;1201;25468;-61
2021/09/04 07:08:37;;;;;;;33.70;15.90;;;;;;;13.32;84.04;100502.20;112061;1197;22470;-61
2021/09/04 07:11:12;;;;;;;33.50;16.20;;;;;;;13.39;83.85;100508.26;112462;1201;24982;-61
2021/09/04 07:13:41;;;;;;;36.20;17.90;;;;;;;13.47;84.11;100511.45;111998;1203;22440;-59
2021/09/04 07:16:09;;;;;;;36.60;16.60;;;;;;;13.54;83.88;100512.73;111739;1202;22471;-61
2021/09/04 07:18:37;;;;;;;34.60;16.00;;;;;;;13.62;83.93;100515.70;111864;1202;23076;-60
2021/09/04 07:21:06;;;;;;;33.00;16.30;;;;;;;13.69;83.88;100516.86;111971;1202;24221;-58
2021/09/04 07:23:36;;;;;;;32.10;15.00;;;;;;;13.78;84.20;100516.80;112224;1204;22490;-59
2021/09/04 07:26:05;;;;;;;30.90;15.60;;;;;;;13.86;83.82;100515.91;112439;1201;22446;-63
2021/09/04 07:28:33;;;;;;;33.50;16.10;;;;;;;13.93;83.63;100513.08;112268;1203;25125;-61
2021/09/04 07:31:02;;;;;;;29.60;16.20;;;;;;;13.99;83.62;100511.70;112234;1204;25292;-61
2021/09/04 07:33:30;;;;;;;36.20;14.80;;;;;;;14.06;83.37;100510.23;112557;1201;22966;-60
2021/09/04 07:35:58;;;;;;;33.90;15.30;;;;;;;14.13;83.57;100507.70;112357;1201;22460;-61
2021/09/04 07:38:26;;;;;;;30.50;13.80;;;;;;;14.20;83.43;100507.55;112327;1202;25229;-60
2021/09/04 07:40:54;;;;;;;32.60;14.30;;;;;;;14.27;83.20;100507.37;112662;1201;25203;-61
2021/09/04 07:43:22;;;;;;;32.70;14.90;;;;;;;14.34;83.24;100513.05;113090;1202;22505;-62
2021/09/04 07:45:50;;;;;;;30.30;14.40;;;;;;;14.41;83.07;100514.67;112658;1201;23290;-61
2021/09/04 07:48:19;;;;;;;31.60;13.80;;;;;;;14.48;83.20;100521.48;112309;1201;22461;-66
2021/09/04 07:50:47;;;;;;;33.70;14.80;;;;;;;14.57;83.34;100512.52;112527;1202;22517;-70
2021/09/04 07:53:16;;;;;;;29.70;14.30;;;;;;;14.69;83.56;100515.77;112425;1201;26524;-61
2021/09/04 07:56:05;;;;;;;33.50;14.50;;;;;;;14.80;83.14;100512.92;112365;1201;22906;-62
2021/09/04 07:58:33;;;;;;;31.80;14.10;;;;;;;14.88;82.92;100514.15;112505;1201;25751;-60
2021/09/04 08:01:02;;;;;;;30.50;14.10;;;;;;;14.97;83.02;100517.23;112429;1201;22457;-60
2021/09/04 08:03:30;;;;;;;29.30;13.50;;;;;;;15.07;82.61;100525.91;112489;1201;25108;-61
2021/09/04 08:05:58;;;;;;;28.80;13.90;;;;;;;15.14;82.16;100528.96;112292;1201;25050;-61
2021/09/04 08:08:26;;;;;;;27.00;13.60;;;;;;;15.20;82.00;100528.12;112321;1201;24074;-61
2021/09/04 08:10:55;;;;;;;30.10;12.90;;;;;;;15.27;82.12;100533.02;112337;1201;22656;-61
2021/09/04 08:13:24;;;;;;;31.70;13.20;;;;;;;15.36;82.04;100531.69;112508;1202;22444;-63
2021/09/04 08:15:53;;;;;;;29.90;14.00;;;;;;;15.44;82.17;100537.09;112549;1201;22544;-61
2021/09/04 08:18:22;;;;;;;29.90;13.00;;;;;;;15.52;81.96;100538.27;112673;1201;23095;-63
2021/09/04 08:20:50;;;;;;;29.00;14.10;;;;;;;15.61;81.86;100536.60;112476;1201;22545;-62
2021/09/04 08:23:18;;;;;;;28.90;13.40;;;;;;;15.68;81.62;100536.79;112293;1202;25053;-62
2021/09/04 08:25:47;;;;;;;30.50;13.70;;;;;;;15.73;81.39;100537.98;112268;1204;22438;-62
2021/09/04 08:28:17;;;;;;;32.30;14.80;;;;;;;15.77;81.32;100536.86;112375;1203;22454;-67
2021/09/04 08:30:45;;;;;;;31.70;13.40;;;;;;;15.84;81.02;100540.66;112682;1202;25386;-61
2021/09/04 08:33:14;;;;;;;34.60;14.20;;;;;;;15.91;80.88;100543.09;112470;1202;22423;-63
2021/09/04 08:35:43;;;;;;;29.20;12.20;;;;;;;15.97;80.74;100538.44;112335;1201;23161;-62
2021/09/04 08:38:11;;;;;;;26.60;12.40;;;;;;;16.02;80.46;100540.40;112521;1201;22453;-62
2021/09/04 08:40:42;;;;;;;27.60;12.20;;;;;;;16.07;80.44;100539.64;112430;1201;23960;-62
2021/09/04 08:43:10;;;;;;;;;;;;;;;16.13;80.36;100535.75;112383;1201;22489;-64
2021/09/04 08:45:38;;;;;;;31.80;13.80;;;;;;;16.18;80.29;100537.65;112283;1201;25288;-62
2021/09/04 08:48:10;;;;;;;29.50;13.60;;;;;;;16.26;80.64;100536.52;112285;1201;22518;-62
2021/09/04 08:50:40;;;;;;;31.00;13.50;;;;;;;16.37;80.43;100536.02;112273;1201;22490;-62
2021/09/04 08:53:08;;;;;;;29.60;12.60;;;;;;;16.43;80.02;100539.41;112170;1201;22916;-61
2021/09/04 08:55:37;;;;;;;28.50;12.30;;;;;;;16.46;79.63;100540.13;112247;1201;25082;-63
2021/09/04 08:58:08;;;;;;;30.60;13.30;;;;;;;16.50;79.67;100539.80;112344;1201;24102;-62
2021/09/04 09:00:43;;;;;;;30.30;12.30;;;;;;;16.57;79.61;100546.95;112241;1201;22736;-62
2021/09/04 09:03:25;;;;;;;26.20;11.70;;;;;;;16.64;79.42;100550.18;112194;1201;25334;-62
2021/09/04 09:05:55;;;;;;;25.20;11.20;;;;;;;16.72;78.97;100551.82;112310;1201;22477;-67
2021/09/04 09:08:26;;;;;;;24.90;11.50;;;;;;;16.76;78.83;100550.73;112456;1201;24130;-61
2021/09/04 09:10:59;;;;;;;26.30;11.70;;;;;;;16.84;78.92;100553.09;112429;1201;24139;-62
2021/09/04 09:13:32;;;;;;;27.30;14.10;;;;;;;16.91;78.67;100554.30;112550;1203;23876;-62
2021/09/04 09:16:01;;;;;;;33.40;13.40;;;;;;;16.97;78.45;100554.45;112191;1202;22556;-64
2021/09/04 09:18:29;;;;;;;29.30;12.30;;;;;;;17.05;78.40;100554.44;111917;1202;25147;-64
2021/09/04 09:21:04;;;;;;;30.10;14.00;;;;;;;17.13;78.00;100554.01;111772;1202;24123;-63
2021/09/04 09:23:33;;;;;;;26.80;13.10;;;;;;;17.20;77.83;100553.16;112176;1201;22485;-62
2021/09/04 09:26:10;;;;;;;27.70;12.80;;;;;;;17.28;77.61;100551.50;112404;1201;25084;-61
2021/09/04 09:28:38;;;;;;;27.50;13.10;;;;;;;17.36;77.61;100556.35;112358;1202;22711;-61
2021/09/04 09:31:07;;;;;;;31.90;14.00;;;;;;;17.44;77.82;100553.43;112062;1203;22850;-61
2021/09/04 09:33:35;;;;;;;28.20;12.60;;;;;;;17.53;77.63;100551.73;112138;1203;22592;-62
2021/09/04 09:36:14;;;;;;;;;;;;;;;;;;;;;
2021/09/04 09:38:46;;;;;;;24.80;11.40;;;;;;;17.76;76.96;100544.89;112112;1201;22480;-61
2021/09/04 09:41:16;;;;;;;28.70;12.20;;;;;;;17.89;76.65;100547.20;112287;1202;24032;-61
2021/09/04 09:43:44;;;;;;;28.20;11.80;;;;;;;17.99;76.13;100539.83;112208;1202;22456;-61
2021/09/04 09:46:12;;;;;;;28.60;12.30;;;;;;;18.07;75.85;100542.98;111753;1201;24157;-61
2021/09/04 09:48:43;;;;;;;26.60;11.40;;;;;;;18.13;75.72;100542.62;111654;1201;22451;-63
2021/09/04 09:51:14;;;;;;;27.70;12.10;;;;;;;18.19;75.41;100545.35;111731;1202;23814;-62
2021/09/04 09:53:44;;;;;;;25.80;11.20;;;;;;;18.22;74.99;100548.98;111837;1202;24122;-62
2021/09/04 09:56:14;;;;;;;25.80;11.30;;;;;;;18.26;74.80;100545.56;111923;1202;25161;-62
2021/09/04 09:58:43;;;;;;;29.20;11.40;;;;;;;18.27;74.30;100546.63;111779;1203;22986;-61
2021/09/04 10:01:12;;;;;;;22.70;11.60;;;;;;;18.30;74.39;100552.15;111592;1201;22465;-61
2021/09/04 10:03:41;;;;;;;26.90;12.70;;;;;;;18.31;74.19;100554.67;111763;1202;22464;-62
2021/09/04 10:06:10;;;;;;;27.10;11.10;;;;;;;18.30;73.66;100555.45;112123;1202;25050;-61
2021/09/04 10:08:40;;;;;;;27.40;13.20;;;;;;;18.28;73.49;100547.28;111803;1201;22747;-62
2021/09/04 10:11:10;;;;;;;23.60;11.40;;;;;;;18.28;73.36;100551.20;111645;1201;25141;-60
2021/09/04 10:13:41;;;;;;;30.90;12.60;;;;;;;18.27;73.31;100543.61;111885;1201;24165;-61
2021/09/04 10:16:13;;;;;;;28.30;11.50;;;;;;;18.28;72.98;100540.61;111682;1203;22454;-63
2021/09/04 10:18:42;;;;;;;28.40;13.60;;;;;;;18.30;72.85;100543.67;111658;1201;22477;-62
2021/09/04 10:21:14;;;;;;;27.50;12.10;;;;;;;18.35;72.81;100537.41;113145;1202;22447;-62
2021/09/04 10:23:51;;;;;;;30.40;11.90;;;;;;;18.43;72.50;100537.11;111810;1202;25465;-61
2021/09/04 10:26:28;;;;;;;27.40;11.10;;;;;;;18.53;71.70;100542.66;111848;1202;22928;-60
2021/09/04 10:29:01;;;;;;;24.50;11.00;;;;;;;18.60;71.83;100541.51;111941;1201;24282;-61
2021/09/04 10:31:50;;;;;;;27.30;11.60;;;;;;;18.69;71.59;100542.91;112532;1201;25085;-63
2021/09/04 10:34:26;;;;;;;24.40;10.50;;;;;;;18.77;71.27;100536.45;112088;1203;24064;-62
2021/09/04 10:37:00;;;;;;;25.10;11.30;;;;;;;18.89;71.54;100544.02;111628;1201;25094;-61
2021/09/04 10:39:59;;;;;;;25.30;10.70;;;;;;;18.98;71.25;100542.05;111657;1201;23781;-61
2021/09/04 10:42:29;;;;;;;25.30;10.80;;;;;;;19.07;70.62;100539.86;111720;1201;25166;-61
2021/09/04 10:45:04;;;;;;;24.20;10.40;;;;;;;19.12;70.32;100537.02;111610;1202;22434;-61
2021/09/04 10:47:42;;;;;;;24.20;10.70;;;;;;;19.18;70.11;100531.09;111633;1201;22555;-59
2021/09/04 10:50:20;;;;;;;23.00;10.70;;;;;;;19.22;69.78;100532.23;111873;1201;24083;-60
2021/09/04 10:53:05;;;;;;;24.10;10.80;;;;;;;19.25;69.14;100530.28;112004;1201;23012;-62
2021/09/04 10:55:35;;;;;;;34.30;14.40;;;;;;;19.30;69.02;100531.37;111755;1201;24151;-61
2021/09/04 10:58:08;;;;;;;31.50;11.70;;;;;;;19.35;67.92;100527.42;111605;1201;25051;-61
2021/09/04 11:00:39;;;;;;;26.20;10.40;;;;;;;19.36;67.60;100529.36;112094;1201;24099;-61
2021/09/04 11:03:09;;;;;;;20.70;9.20;;;;;;;19.38;67.25;100526.98;112074;1202;25424;-63
2021/09/04 11:05:49;;;;;;;24.00;10.20;;;;;;;19.42;67.70;100530.79;112148;1201;26340;-62
2021/09/04 11:08:34;;;;;;;25.00;9.80;;;;;;;19.50;67.73;100534.29;112108;1201;22449;-63
2021/09/04 11:11:27;;;;;;;21.40;9.40;;;;;;;19.60;67.84;100538.06;111959;1201;25137;-62
2021/09/04 11:13:57;;;;;;;26.60;11.10;;;;;;;19.73;66.89;100535.70;111717;1201;22652;-64
2021/09/04 11:16:47;;;;;;;32.10;14.20;;;;;;;19.77;66.21;100537.02;112106;1201;22457;-63
2021/09/04 11:19:21;;;;;;;23.50;10.10;;;;;;;19.76;65.78;100537.30;111794;1201;23118;-61
2021/09/04 11:21:56;;;;;;;22.90;10.10;;;;;;;19.75;65.94;100540.20;112028;1201;25369;-61